Date,TemperatureHighF,TemperatureAvgF,TemperatureLowF,DewpointHighF,DewpointAvgF,DewpointLowF,HumidityHigh,HumidityAvg,HumidityLow,PressureMaxIn,PressureMinIn,WindSpeedMaxMPH,WindSpeedAvgMPH,GustSpeedMaxMPH,PrecipitationSumIn
2013-1-1,50.2,47.7,42.8,47.0,43.6,34.0,90,86,71,30.28,30.07,10,0,15,1.24
2013-1-2,46.0,37.4,34.4,42.0,35.0,32.0,92,91,87,30.28,30.06,1,0,10,0.03
2013-1-3,40.0,34.0,29.0,34.0,30.4,26.0,92,86,72,30.50,30.26,1,0,8,0.00
2013-1-4,43.7,31.9,22.9,26.0,22.6,18.0,91,71,37,30.57,30.47,2,0,8,0.00
2013-1-5,49.7,35.5,22.3,33.0,24.2,19.0,90,68,30,30.55,30.42,0,0,6,0.03
2013-1-6,45.8,38.1,34.9,39.0,33.9,31.0,91,85,70,30.42,30.27,3,0,8,0.04
2013-1-7,56.4,37.7,26.1,34.0,27.5,24.0,91,70,33,30.54,30.39,0,0,5,0.00
2013-1-8,58.4,44.1,31.2,47.0,37.6,28.0,90,78,61,30.54,30.44,3,0,6,0.00
2013-1-9,60.7,54.0,48.7,55.0,50.1,46.0,90,86,74,30.56,30.48,0,0,2,0.03
2013-1-10,63.7,56.7,49.5,58.0,51.9,46.0,91,84,72,30.54,30.32,1,0,9,0.03
2013-1-11,62.1,59.1,54.7,59.0,55.4,51.0,90,87,85,30.32,30.20,3,0,11,1.20
2013-1-12,69.8,63.0,60.1,63.0,58.8,56.0,91,86,72,30.25,30.13,4,0,12,0.12
2013-1-13,63.9,61.4,59.5,60.0,57.5,56.0,90,87,82,30.18,30.08,6,0,16,1.61
2013-1-14,60.4,52.2,42.3,56.0,48.8,39.0,91,88,85,30.27,30.10,1,0,8,1.80
2013-1-15,61.2,55.3,44.1,58.0,51.5,41.0,91,87,85,30.22,30.05,5,0,19,4.16
2013-1-16,60.9,56.5,51.4,58.0,53.1,47.0,91,88,86,30.09,29.98,8,0,13,1.07
2013-1-17,51.4,41.4,31.4,47.0,38.6,29.0,92,89,86,30.39,29.78,2,0,13,1.46
2013-1-18,52.9,35.4,27.9,35.0,28.9,25.0,92,79,43,30.67,30.40,1,0,6,0.01
2013-1-19,51.3,36.9,25.9,32.0,27.3,24.0,92,71,39,30.61,30.38,2,0,8,0.00
2013-1-20,59.3,41.0,28.7,38.0,31.3,26.0,90,71,34,30.38,30.25,3,0,7,0.00
2013-1-21,50.7,35.6,25.3,35.0,23.6,15.0,91,65,36,30.31,30.22,8,0,13,0.00
2013-1-22,38.4,27.6,20.6,16.0,9.8,6.0,63,48,32,30.46,30.30,4,0,15,0.00
2013-1-23,47.3,34.7,26.2,38.0,19.1,-99.9,77,55,43,30.53,30.31,5,-10,10,0.00
2013-1-24,44.9,37.3,25.6,39.0,21.8,3.0,82,56,25,30.49,30.28,9,1,16,0.00
2013-1-25,40.4,32.8,26.5,38.0,25.4,9.0,90,76,44,30.50,30.27,7,1,21,0.01
2013-1-26,51.0,37.8,28.3,35.0,30.1,25.0,91,76,40,30.46,30.32,1,0,5,0.00
2013-1-27,53.6,39.3,26.2,37.0,31.2,24.0,91,74,52,30.60,30.46,2,0,4,0.00
2013-1-28,54.4,46.0,38.9,51.0,40.9,31.0,90,82,69,30.56,30.40,3,0,9,0.00
2013-1-29,63.3,55.6,41.1,59.0,51.9,37.0,91,87,81,30.41,30.05,5,0,13,0.00
2013-1-30,62.8,53.3,36.8,60.0,50.1,34.0,91,89,84,30.05,29.64,10,2,22,2.15
2013-1-31,42.6,35.0,28.5,33.0,24.4,22.0,88,66,45,30.26,29.82,12,2,26,0.00
2013-2-1,38.7,29.2,20.0,29.0,15.5,7.0,81,58,32,30.53,30.23,8,1,18,0.00
2013-2-2,37.0,27.4,16.2,32.0,21.8,4.0,91,82,27,30.53,30.30,8,1,15,0.09
2013-2-3,47.1,36.2,29.2,34.0,29.2,25.0,91,77,49,30.31,30.16,4,0,13,0.04
2013-2-4,47.9,35.8,24.8,31.0,25.6,22.0,90,69,43,30.29,30.16,3,0,7,0.00
2013-2-5,59.1,43.9,35.1,44.0,36.2,27.0,90,76,38,30.18,30.09,3,0,10,0.00
2013-2-6,64.1,45.0,33.2,38.0,32.2,27.0,91,66,28,30.33,30.18,1,0,4,0.00
2013-2-7,49.7,44.1,33.9,45.0,38.1,30.0,90,80,55,30.30,30.08,0,0,4,0.02
2013-2-8,51.0,43.1,32.3,45.0,39.0,29.0,91,85,62,30.31,30.04,3,0,12,0.00
2013-2-9,63.8,42.1,26.9,32.0,25.7,10.0,91,60,13,30.45,30.28,3,0,4,0.00
2013-2-10,53.2,46.7,42.3,46.0,34.5,24.0,90,65,37,30.43,30.21,6,0,12,0.72
2013-2-11,54.5,49.7,41.2,52.0,46.2,39.0,91,88,76,30.24,30.14,3,0,7,0.39
2013-2-12,51.2,42.6,37.9,41.0,34.8,29.0,91,75,44,30.25,30.00,2,0,6,0.12
2013-2-13,46.3,41.0,33.4,43.0,37.9,31.0,92,89,85,30.08,29.83,8,0,15,0.11
2013-2-14,53.9,39.5,31.7,35.0,31.5,29.0,90,75,45,30.22,30.09,2,0,8,0.00
2013-2-15,56.5,38.2,26.0,41.0,31.3,24.0,91,79,39,30.27,30.15,4,0,12,0.05
2013-2-16,35.7,29.8,22.8,31.0,21.4,13.0,88,72,46,30.27,30.10,8,1,14,0.00
2013-2-17,40.9,27.7,18.1,19.0,12.4,9.0,79,55,32,30.45,30.27,17,0,17,0.00
2013-2-18,55.7,36.3,20.2,30.0,22.9,17.0,89,62,35,30.52,30.27,4,0,12,0.00
2013-2-19,49.9,40.9,33.0,41.0,28.2,13.0,91,64,35,30.28,30.11,12,1,17,0.38
2013-2-20,46.0,33.1,27.1,17.0,13.0,4.0,62,46,19,30.34,30.27,7,0,9,0.00
2013-2-21,65.3,41.3,23.8,40.0,23.5,3.0,90,57,13,30.35,30.12,2,0,7,0.63
2013-2-22,46.1,42.3,39.2,43.0,39.6,37.0,91,90,88,30.29,30.15,1,0,9,0.38
2013-2-23,56.0,47.5,41.5,53.0,44.1,39.0,91,88,86,30.17,29.96,1,0,2,0.51
2013-2-24,60.0,44.2,32.0,38.0,31.7,26.0,92,66,30,30.16,30.02,4,0,7,0.00
2013-2-25,52.5,40.8,29.8,41.0,32.4,27.0,90,74,48,30.17,29.96,0,0,12,0.01
2013-2-26,45.4,42.3,37.1,43.0,39.2,34.0,91,88,80,29.96,29.66,3,0,16,0.55
2013-2-27,52.0,41.0,34.8,38.0,33.6,30.0,89,76,52,30.01,29.87,8,1,13,0.02
2013-2-28,38.4,33.6,30.8,31.0,26.9,25.0,83,76,69,30.13,29.96,6,0,13,0.00
2013-3-1,35.2,32.2,30.4,29.0,27.5,25.0,90,83,74,30.15,30.09,0,0,7,0.00
2013-3-2,31.8,30.0,26.3,28.0,26.3,22.0,90,86,78,30.18,30.07,3,0,11,0.00
2013-3-3,35.5,27.3,21.7,24.0,20.0,17.0,89,75,54,30.24,30.15,7,0,13,0.00
2013-3-4,56.5,39.1,24.6,32.0,22.5,17.0,75,54,31,30.34,30.18,3,0,7,0.00
2013-3-5,53.2,46.0,32.5,50.0,40.0,27.0,90,80,50,30.21,29.75,15,1,22,0.00
2013-3-6,32.7,29.3,26.3,27.0,24.5,20.0,89,82,70,30.36,29.95,10,1,20,0.00
2013-3-7,54.0,35.9,27.7,34.0,28.1,25.0,89,76,43,30.45,30.33,2,0,8,0.00
2013-3-8,60.7,39.1,22.8,32.0,22.4,16.0,91,60,19,30.49,30.39,1,0,11,0.00
2013-3-9,60.2,45.2,28.4,33.0,28.2,24.0,84,55,30,30.44,30.34,2,0,5,0.12
2013-3-10,67.0,54.8,47.7,42.0,34.2,29.0,66,47,32,30.34,30.17,3,0,10,0.00
2013-3-11,58.0,53.0,50.1,51.0,48.3,42.0,90,84,68,30.18,29.90,3,0,14,1.01
2013-3-12,54.0,42.8,33.5,47.0,34.4,30.0,91,74,47,30.23,29.93,4,0,10,0.03
2013-3-13,47.9,39.0,28.7,30.0,25.3,19.0,79,60,36,30.39,30.22,6,0,18,0.00
2013-3-14,52.3,35.2,22.9,28.0,16.9,11.0,79,52,21,30.51,30.39,2,0,12,0.00
2013-3-15,68.0,48.4,28.3,45.0,34.5,26.0,90,63,37,30.42,30.11,7,1,23,0.00
2013-3-16,71.4,62.1,49.4,48.0,43.3,41.0,73,51,37,30.10,29.95,20,2,21,0.00
2013-3-17,67.3,59.2,52.2,52.0,47.2,43.0,82,65,54,30.07,29.98,6,0,11,0.00
2013-3-18,56.6,51.0,46.1,52.0,47.3,43.0,90,87,75,30.04,29.91,7,0,11,0.50
2013-3-19,59.1,47.1,35.7,44.0,31.4,15.0,91,59,26,30.23,29.99,5,0,14,0.01
2013-3-20,54.9,43.0,35.5,30.0,16.7,6.0,77,37,20,30.25,30.01,5,0,15,0.00
2013-3-21,44.0,31.7,21.7,27.0,13.8,4.0,79,51,27,30.13,30.01,11,1,12,0.00
2013-3-22,48.6,37.7,28.1,34.0,22.5,12.0,69,55,38,30.21,30.13,1,0,2,0.00
2013-3-23,50.7,45.4,39.4,48.0,41.3,32.0,90,85,66,30.17,29.90,0,0,5,0.25
2013-3-24,53.4,47.2,36.9,50.0,43.5,32.0,91,87,80,29.96,29.58,14,1,22,1.98
2013-3-25,36.7,31.2,28.4,31.0,24.9,22.0,85,77,70,30.18,29.75,13,2,21,0.00
2013-3-26,37.0,30.8,27.3,28.0,24.8,22.0,87,79,64,30.43,30.17,6,0,18,0.00
2013-3-27,50.5,36.2,26.5,28.0,24.0,22.0,89,65,33,30.49,30.40,7,0,14,0.00
2013-3-28,56.8,42.1,27.1,31.0,25.2,21.0,80,54,31,30.48,30.38,5,0,13,0.00
2013-3-29,59.1,41.4,26.9,37.0,29.7,24.0,89,67,35,30.48,30.35,0,0,5,0.00
2013-3-30,66.6,52.8,41.1,50.0,41.6,36.0,90,69,36,30.35,30.14,4,0,13,0.34
2013-3-31,59.3,54.7,51.5,55.0,51.0,48.0,90,87,75,30.13,29.97,4,0,12,1.06
2013-4-1,64.9,54.1,40.5,52.0,43.2,35.0,91,69,40,30.15,29.97,4,0,10,0.01
2013-4-2,60.0,47.1,37.5,36.0,27.3,20.0,77,49,26,30.30,30.15,3,0,7,0.00
2013-4-3,61.8,49.4,38.5,34.0,29.2,23.0,62,47,32,30.32,30.23,1,0,4,0.00
2013-4-4,47.2,40.2,37.0,39.0,36.6,34.0,90,87,62,30.28,30.09,0,0,6,0.79
2013-4-5,62.1,46.5,39.8,46.0,38.9,36.0,91,76,40,30.22,30.09,4,0,8,0.00
2013-4-6,70.7,50.0,31.1,42.0,34.7,28.0,90,62,27,30.33,30.22,2,0,8,0.00
2013-4-7,70.9,59.7,49.9,48.0,42.8,35.0,68,55,39,30.29,30.17,4,0,11,0.00
2013-4-8,73.9,62.5,53.5,53.0,50.0,45.0,80,65,43,30.23,30.15,5,0,9,0.00
2013-4-9,80.9,66.4,51.2,57.0,52.8,48.0,88,64,39,30.28,30.15,5,0,13,0.00
2013-4-10,85.1,69.5,54.3,58.0,54.9,50.0,87,62,37,30.20,29.99,5,0,11,0.00
2013-4-11,76.6,66.3,59.7,64.0,57.3,53.0,89,74,56,30.01,29.73,5,0,13,1.94
2013-4-12,64.9,57.4,45.7,57.0,47.3,36.0,90,72,37,30.03,29.70,3,0,16,0.17
2013-4-13,73.9,56.3,42.1,40.0,36.8,33.0,85,53,24,30.16,30.03,1,0,11,0.00
2013-4-14,63.1,50.5,38.5,51.0,43.2,35.0,89,77,44,30.16,30.04,0,0,9,0.04
2013-4-15,78.8,62.9,52.4,59.0,54.0,49.0,90,75,50,30.23,30.05,0,0,5,0.01
2013-4-16,79.9,66.9,58.5,63.0,58.8,55.0,89,76,55,30.33,30.23,1,0,6,0.00
2013-4-17,85.4,68.8,58.3,63.0,59.2,55.0,88,73,44,30.29,30.13,3,0,6,2.40
2013-4-18,77.4,67.0,58.5,62.0,58.4,55.0,90,75,52,30.15,29.96,6,0,12,0.01
2013-4-19,67.0,56.6,40.1,61.0,51.2,35.0,89,82,71,30.12,29.82,6,0,18,0.73
2013-4-20,61.0,46.3,33.9,35.0,31.6,29.0,84,60,34,30.40,30.12,3,0,10,0.00
2013-4-21,69.9,50.4,31.1,38.0,33.6,28.0,90,58,26,30.49,30.37,0,0,5,0.00
2013-4-22,73.1,56.0,42.1,44.0,39.3,37.0,81,57,31,30.44,30.24,0,0,7,0.00
2013-4-23,75.2,58.0,40.5,47.0,39.3,32.0,78,52,30,30.32,30.17,0,0,7,0.00
2013-4-24,67.6,59.0,46.9,57.0,52.0,44.0,89,78,66,30.25,30.13,2,0,15,0.31
2013-4-25,68.4,50.7,36.9,44.0,35.9,25.0,90,64,21,30.46,30.25,2,0,8,0.00
2013-4-26,75.6,54.5,33.9,49.0,36.6,31.0,89,57,24,30.51,30.38,0,0,8,0.14
2013-4-27,59.7,52.3,49.6,54.0,48.5,46.0,90,87,79,30.48,30.27,0,0,1,0.72
2013-4-28,54.8,52.7,50.4,51.0,48.6,46.0,89,86,85,30.27,30.11,0,0,10,3.49
2013-4-29,72.0,58.4,50.4,57.0,50.6,47.0,90,77,45,30.15,30.05,1,0,6,0.00
2013-4-30,77.6,59.8,42.4,58.0,50.4,38.0,89,73,48,30.21,30.08,2,0,4,0.00
2013-5-1,75.1,63.1,55.9,56.0,54.0,51.0,88,73,47,30.28,30.19,2,0,5,0.00
2013-5-2,71.4,61.0,55.2,58.0,54.2,50.0,87,79,62,30.28,30.22,0,0,5,0.00
2013-5-3,62.5,57.0,54.7,54.0,52.6,50.0,90,85,67,30.23,30.07,1,0,8,0.05
2013-5-4,55.4,51.3,48.0,51.0,47.6,45.0,90,87,78,30.07,29.97,0,0,10,1.43
2013-5-5,62.0,52.4,44.9,56.0,48.7,42.0,90,87,76,29.97,29.86,4,0,15,1.43
2013-5-6,49.3,46.1,42.5,47.0,42.9,39.0,90,88,85,30.04,29.89,0,0,3,0.20
2013-5-7,70.3,54.4,46.9,53.0,47.0,43.0,91,78,46,30.09,30.00,4,0,6,0.09
2013-5-8,72.8,58.0,45.6,57.0,50.3,41.0,89,77,53,30.18,30.06,3,0,8,0.00
2013-5-9,78.4,61.9,46.9,60.0,52.5,43.0,90,74,42,30.23,30.14,0,0,7,0.00
2013-5-10,73.4,61.9,50.8,61.0,54.7,46.0,90,78,57,30.20,30.05,5,0,11,0.00
2013-5-11,73.2,62.1,56.8,64.0,57.6,54.0,90,85,70,30.08,29.97,1,0,13,0.59
2013-5-12,64.8,55.1,47.8,53.0,41.9,31.0,90,65,34,30.23,30.04,1,0,8,0.00
2013-5-13,65.9,51.7,37.9,40.0,34.0,30.0,86,55,28,30.35,30.21,4,0,9,0.00
2013-5-14,78.1,57.2,35.0,54.0,44.3,32.0,90,66,40,30.39,30.23,2,0,8,0.00
2013-5-15,85.8,69.3,53.1,59.0,53.8,48.0,89,62,27,30.27,30.10,2,0,9,0.00
2013-5-16,80.9,65.0,53.2,63.0,56.5,50.0,89,76,49,30.16,30.08,0,0,2,0.00
2013-5-17,80.5,66.6,54.7,65.0,57.8,51.0,90,75,42,30.19,30.11,1,0,7,0.01
2013-5-18,69.0,64.3,61.3,64.0,60.7,57.0,90,88,83,30.16,30.10,1,0,9,0.24
2013-5-19,66.0,62.9,58.0,63.0,59.0,54.0,90,87,84,30.20,30.05,3,0,6,1.44
2013-5-20,81.8,66.8,52.5,71.0,60.3,48.0,90,80,63,30.23,30.10,0,0,3,0.01
2013-5-21,87.6,72.5,62.8,70.0,63.9,58.0,90,76,49,30.14,29.98,1,0,4,0.03
2013-5-22,83.6,70.2,61.4,69.0,63.1,58.0,90,79,53,30.09,29.92,1,0,9,0.01
2013-5-23,80.8,68.4,61.3,63.0,57.7,52.0,90,70,47,30.06,29.98,5,0,10,0.12
2013-5-24,71.7,61.5,50.6,54.0,48.6,40.0,85,65,33,30.32,30.06,1,0,12,0.00
2013-5-25,79.6,58.8,39.2,51.0,41.1,35.0,89,59,20,30.43,30.31,1,0,6,0.00
2013-5-26,83.4,62.2,44.5,55.0,47.7,42.0,89,64,33,30.38,30.27,2,0,6,0.00
2013-5-27,83.7,65.0,47.7,61.0,54.2,45.0,89,70,40,30.34,30.21,1,0,6,0.00
2013-5-28,85.0,71.8,62.8,62.0,59.0,57.0,84,66,41,30.27,30.19,0,0,6,0.00
2013-5-29,86.3,70.9,60.8,67.0,60.7,57.0,88,72,42,30.28,30.20,0,0,6,0.00
2013-5-30,83.7,70.8,62.7,65.0,62.0,59.0,88,75,51,30.31,30.20,1,0,4,0.00
2013-5-31,83.0,71.8,64.9,67.0,63.3,60.0,86,75,57,30.27,30.16,1,0,10,0.00
2013-6-1,83.0,71.7,65.7,69.0,64.8,61.0,88,79,61,30.18,30.06,1,0,7,0.35
2013-6-2,74.9,68.4,63.6,71.0,64.5,59.0,90,87,84,30.07,29.95,0,0,8,1.89
2013-6-3,80.3,68.3,60.4,70.0,61.9,57.0,89,80,60,30.07,29.97,1,0,4,0.02
2013-6-4,84.0,67.4,54.7,67.0,58.3,50.0,89,74,44,30.12,30.05,0,0,2,0.00
2013-6-5,85.0,70.3,62.2,71.0,64.5,59.0,90,83,62,30.12,29.98,1,0,6,1.43
2013-6-6,79.0,69.5,63.9,70.0,64.5,59.0,90,84,70,30.00,29.84,0,0,6,0.00
2013-6-7,79.9,67.6,61.3,74.0,63.1,58.0,90,86,65,29.94,29.77,2,0,4,0.87
2013-6-8,78.3,66.1,55.3,69.0,60.0,51.0,90,81,63,30.18,29.94,0,0,6,0.00
2013-6-9,80.8,69.4,61.2,72.0,64.7,58.0,90,85,67,30.19,30.07,4,0,8,0.13
2013-6-10,78.9,69.6,62.4,68.0,64.0,59.0,90,83,62,30.09,30.00,4,0,11,1.02
2013-6-11,85.5,74.6,67.3,73.0,67.9,64.0,90,80,57,30.11,30.04,3,0,13,0.28
2013-6-12,90.3,74.6,62.7,76.0,67.4,58.0,89,79,55,30.15,30.05,0,0,9,0.00
2013-6-13,87.5,74.1,66.4,75.0,67.8,62.0,90,81,62,30.05,29.79,6,0,13,0.74
2013-6-14,83.9,69.2,57.2,64.0,60.1,54.0,91,75,47,30.11,29.91,2,0,5,0.00
2013-6-15,82.0,68.1,54.4,66.0,59.5,51.0,90,76,49,30.22,30.11,0,0,2,0.00
2013-6-16,86.8,70.2,55.3,68.0,61.7,51.0,90,76,49,30.24,30.10,1,0,5,0.27
2013-6-17,82.6,70.3,64.9,74.0,66.1,60.0,90,86,71,30.14,30.02,0,0,6,0.28
2013-6-18,78.4,69.5,66.0,72.0,65.8,63.0,90,88,75,30.02,29.92,2,0,12,0.36
2013-6-19,84.8,71.2,61.0,70.0,63.9,57.0,90,79,54,30.17,29.99,3,0,4,0.00
2013-6-20,82.3,69.1,60.3,69.0,63.3,56.0,90,82,64,30.30,30.16,0,0,4,0.59
2013-6-21,82.8,68.5,61.5,70.0,62.4,57.0,90,81,58,30.34,30.25,0,0,1,0.06
2013-6-22,87.1,69.2,56.2,69.0,60.2,52.0,90,75,44,30.34,30.19,0,0,2,0.00
2013-6-23,83.3,69.6,57.7,72.0,63.4,54.0,90,81,64,30.29,30.18,0,0,3,0.00
2013-6-24,85.0,73.2,63.9,72.0,66.5,60.0,90,80,62,30.30,30.17,0,0,4,0.00
2013-6-25,84.3,71.5,63.5,73.0,66.5,60.0,91,85,67,30.23,30.11,1,0,5,0.03
2013-6-26,84.0,72.4,63.9,75.0,67.3,59.0,90,84,67,30.16,30.01,3,0,12,0.22
2013-6-27,84.9,75.9,68.4,75.0,70.0,64.0,90,82,68,30.06,29.86,4,0,13,0.09
2013-6-28,88.1,73.0,64.0,75.0,66.1,59.0,90,80,46,29.92,29.73,0,0,10,1.22
2013-6-29,83.7,71.4,62.4,69.0,61.1,58.0,90,72,43,29.81,29.74,2,0,7,0.00
2013-6-30,85.7,69.9,56.2,67.0,59.9,52.0,90,73,38,29.88,29.79,0,0,3,0.00
2013-7-1,78.2,68.2,61.5,69.0,63.8,57.0,90,86,68,30.00,29.86,0,0,6,0.67
2013-7-2,80.6,70.9,63.9,71.0,65.5,60.0,91,83,69,30.16,30.00,1,0,5,0.00
2013-7-3,70.1,66.8,63.9,67.0,63.5,60.0,91,89,86,30.25,30.14,0,0,1,1.44
2013-7-4,71.7,67.2,64.0,69.0,63.4,60.0,91,87,84,30.26,30.18,0,0,10,0.63
2013-7-5,79.8,69.3,65.9,72.0,65.6,62.0,91,88,71,30.29,30.21,1,0,7,0.24
2013-7-6,76.6,69.3,66.6,73.0,65.5,62.0,91,87,85,30.24,30.18,0,0,6,1.09
2013-7-7,76.6,70.0,67.1,72.0,66.2,62.0,91,87,84,30.26,30.18,0,0,7,0.17
2013-7-8,83.7,71.2,65.7,74.0,67.0,61.0,91,86,68,30.28,30.19,0,0,6,0.43
2013-7-9,87.0,73.7,66.3,77.0,68.3,62.0,90,83,65,30.26,30.14,0,0,1,0.02
2013-7-10,83.0,72.0,66.6,77.0,67.7,62.0,91,86,78,30.19,30.04,0,0,2,0.75
2013-7-11,83.1,72.8,67.9,75.0,68.0,63.0,91,85,72,30.06,29.95,0,0,1,0.01
2013-7-12,85.4,73.6,66.5,72.0,66.8,63.0,91,80,58,30.03,29.95,0,0,7,0.00
2013-7-13,79.6,70.2,63.8,71.0,65.9,61.0,91,86,73,30.15,30.02,0,0,3,0.00
2013-7-14,77.6,70.9,67.2,73.0,67.4,63.0,91,88,83,30.30,30.14,0,0,8,0.25
2013-7-15,87.2,73.8,67.5,75.0,68.3,65.0,91,84,63,30.38,30.29,1,0,7,0.04
2013-7-16,90.3,75.6,64.7,74.0,68.4,61.0,91,79,56,30.40,30.30,0,0,1,0.01
2013-7-17,93.2,73.0,62.9,75.0,66.5,59.0,91,81,46,30.38,30.23,0,0,3,0.24
2013-7-18,88.7,74.2,64.1,77.0,67.6,60.0,91,80,58,30.32,30.14,0,0,1,0.01
2013-7-19,81.8,72.8,65.8,77.0,68.8,62.0,91,87,79,30.21,30.07,0,0,2,0.32
2013-7-20,86.3,72.7,65.6,76.0,67.7,61.0,91,84,64,30.13,30.00,0,0,3,0.07
2013-7-21,86.0,72.9,65.6,74.0,67.5,61.0,91,83,62,30.11,30.00,4,0,8,0.01
2013-7-22,82.8,71.6,65.9,74.0,67.9,63.0,91,88,69,30.08,29.93,0,0,5,0.03
2013-7-23,80.1,71.5,66.5,73.0,67.6,64.0,91,87,75,30.04,29.91,1,0,5,0.00
2013-7-24,86.1,73.8,67.5,73.0,68.2,64.0,91,83,63,29.96,29.88,0,0,3,0.00
2013-7-25,87.5,72.3,62.7,73.0,65.7,58.0,91,80,53,30.10,29.94,0,0,5,0.00
2013-7-26,86.5,70.4,58.7,74.0,64.7,55.0,91,83,59,30.16,30.06,0,0,3,0.30
2013-7-27,78.5,70.3,64.9,71.0,65.4,60.0,91,84,72,30.10,29.97,0,0,6,0.00
2013-7-28,83.8,70.1,60.8,71.0,63.1,57.0,91,80,51,30.14,30.01,1,0,6,0.00
2013-7-29,83.9,67.3,57.0,65.0,59.0,54.0,92,78,41,30.28,30.13,0,0,0,0.00
2013-7-30,91.5,70.1,54.6,69.0,59.9,52.0,91,74,36,30.32,30.20,0,0,0,0.00
2013-7-31,76.4,70.4,66.4,71.0,66.8,63.0,91,88,81,30.23,30.04,0,0,0,0.37
2013-8-1,83.5,72.1,65.3,74.0,66.9,62.0,91,84,62,30.08,30.00,0,0,5,0.44
2013-8-2,87.9,71.4,60.0,70.0,63.5,56.0,91,78,48,30.12,30.03,0,0,2,0.00
2013-8-3,81.0,70.1,59.9,72.0,64.1,56.0,91,82,63,30.14,30.08,0,0,5,0.00
2013-8-4,85.7,73.3,65.1,72.0,66.4,61.0,91,80,56,30.13,30.06,0,0,6,0.00
2013-8-5,85.0,69.9,59.2,71.0,63.0,55.0,91,80,53,30.15,30.06,0,0,2,0.00
2013-8-6,82.1,72.6,65.5,73.0,67.8,63.0,91,85,70,30.10,30.04,0,0,0,0.00
2013-8-7,78.8,72.5,68.4,74.0,69.1,65.0,91,89,81,30.12,30.05,0,0,4,0.56
2013-8-8,86.3,75.3,69.6,76.0,70.6,67.0,91,86,69,30.13,30.06,0,0,3,0.00
2013-8-9,88.4,76.4,68.4,76.0,70.5,65.0,91,82,64,30.17,30.08,1,0,3,0.02
2013-8-10,88.1,75.5,67.1,77.0,70.1,63.0,91,83,62,30.20,30.13,0,0,5,0.02
2013-8-11,86.8,74.5,65.5,76.0,68.4,61.0,90,82,62,30.24,30.14,0,0,1,0.01
2013-8-12,84.3,72.9,65.1,76.0,68.1,61.0,91,85,70,30.20,30.06,0,0,1,0.13
2013-8-13,84.4,73.8,68.7,74.0,68.3,65.0,91,83,64,30.09,29.95,0,0,7,0.02
2013-8-14,79.8,69.8,64.3,69.0,64.5,60.0,92,84,62,30.11,29.98,0,0,5,0.02
2013-8-15,79.4,64.5,57.1,67.0,59.8,53.0,92,85,60,30.17,30.10,0,0,1,0.08
2013-8-16,69.1,62.5,57.9,64.0,59.2,55.0,92,89,80,30.21,30.14,0,0,0,0.07
2013-8-17,67.0,62.9,60.9,62.0,59.8,58.0,92,89,82,30.24,30.17,0,0,0,0.80
2013-8-18,73.3,66.2,61.9,69.0,62.6,58.0,92,88,85,30.29,30.20,0,0,0,0.35
2013-8-19,80.3,69.5,63.8,73.0,65.3,59.0,92,86,74,30.26,30.14,0,0,1,0.81
2013-8-20,80.2,70.5,63.7,73.0,66.1,59.0,91,86,73,30.27,30.18,0,0,1,0.00
2013-8-21,78.7,69.7,66.9,74.0,66.5,63.0,92,89,85,30.31,30.20,0,0,1,1.59
2013-8-22,79.0,71.3,65.6,76.0,67.4,61.0,92,87,80,30.27,30.14,0,0,0,0.18
2013-8-23,86.5,72.0,62.6,74.0,65.7,58.0,92,81,59,30.19,30.07,0,0,3,0.01
2013-8-24,83.7,71.2,62.4,73.0,65.6,58.0,91,83,66,30.34,30.14,0,0,4,0.00
2013-8-25,82.8,68.9,57.5,69.0,61.7,55.0,91,79,55,30.44,30.33,0,0,1,0.00
2013-8-26,85.3,67.0,54.7,68.0,60.1,51.0,91,80,52,30.41,30.24,0,0,3,0.00
2013-8-27,83.8,67.5,55.7,71.0,61.5,52.0,91,82,60,30.27,30.14,0,0,3,0.00
2013-8-28,88.9,71.2,59.6,74.0,64.7,56.0,90,81,58,30.18,30.08,0,0,4,0.00
2013-8-29,88.9,74.2,63.1,76.0,67.6,59.0,91,81,61,30.12,30.02,2,0,5,0.00
2013-8-30,83.4,72.6,65.6,76.0,68.5,61.0,91,87,72,30.10,30.01,0,0,4,0.04
2013-8-31,88.0,74.8,65.8,76.0,69.2,61.0,92,83,61,30.06,29.94,0,0,3,0.00
2013-9-1,83.2,71.6,67.0,77.0,67.6,63.0,92,87,74,30.02,29.93,5,0,6,0.00
2013-9-2,79.7,70.4,64.7,73.0,66.1,60.0,91,86,77,30.06,29.95,0,0,1,0.00
2013-9-3,86.4,73.0,65.3,73.0,66.0,61.0,92,80,49,30.08,29.96,1,0,3,0.00
2013-9-4,84.8,69.8,60.3,72.0,63.7,56.0,92,82,60,30.20,30.07,0,0,1,0.00
2013-9-5,87.0,69.6,59.6,71.0,62.9,56.0,92,80,53,30.23,30.16,0,0,1,0.00
2013-9-6,84.6,69.0,57.4,71.0,62.4,53.0,91,80,58,30.25,30.16,0,0,0,0.00
2013-9-7,83.0,68.8,57.2,72.0,62.9,53.0,91,82,63,30.22,30.10,0,0,1,0.00
2013-9-8,87.5,69.7,58.5,71.0,62.7,54.0,91,79,53,30.13,30.04,0,0,3,0.00
2013-9-9,85.0,70.0,60.2,74.0,64.7,56.0,91,83,59,30.22,30.11,0,0,1,0.00
2013-9-10,87.6,71.2,60.2,73.0,64.6,56.0,91,81,53,30.32,30.22,0,0,1,0.00
2013-9-11,87.6,70.5,58.9,73.0,63.3,54.0,91,79,51,30.33,30.20,0,0,2,0.00
2013-9-12,83.8,70.0,61.2,75.0,65.2,57.0,92,85,67,30.21,30.00,0,0,6,0.00
2013-9-13,80.1,68.8,57.6,66.0,61.2,52.0,92,78,48,30.02,29.93,0,0,8,0.00
2013-9-14,81.3,60.5,46.3,63.0,53.1,43.0,92,78,47,30.20,30.00,0,0,0,0.00
2013-9-15,81.2,63.9,50.8,66.0,57.9,48.0,92,81,55,30.28,30.20,0,0,2,0.00
2013-9-16,85.7,68.4,58.2,68.0,60.7,55.0,91,78,43,30.25,30.17,0,0,2,0.00
2013-9-17,79.3,66.0,60.1,65.0,59.9,57.0,92,81,60,30.31,30.22,0,0,0,0.00
2013-9-18,76.4,64.0,56.7,64.0,58.5,54.0,91,83,65,30.33,30.23,0,0,0,0.00
2013-9-19,81.9,64.6,53.1,70.0,58.7,49.0,92,82,59,30.30,30.17,0,0,0,0.00
2013-9-20,84.1,67.5,55.4,68.0,60.5,51.0,92,79,55,30.20,30.01,0,0,2,0.00
2013-9-21,69.7,64.9,58.5,64.0,61.5,56.0,92,88,82,30.02,29.80,5,0,11,1.65
2013-9-22,77.0,60.8,52.4,63.0,54.8,48.0,92,82,60,30.01,29.87,0,0,4,0.01
2013-9-23,77.5,59.5,47.0,64.0,53.3,43.0,92,81,56,30.15,30.01,0,0,1,0.00
2013-9-24,69.2,62.0,54.3,64.0,58.7,50.0,92,89,80,30.15,30.01,0,0,2,0.01
2013-9-25,64.1,62.0,60.5,62.0,58.3,56.0,92,88,84,30.00,29.93,0,0,0,0.90
2013-9-26,77.3,64.5,58.6,67.0,58.9,54.0,92,83,63,30.12,29.97,2,0,4,0.00
2013-9-27,78.3,62.7,50.5,64.0,55.9,47.0,91,80,50,30.24,30.12,0,0,3,0.00
2013-9-28,77.9,61.3,51.9,63.0,56.0,49.0,92,83,58,30.31,30.20,0,0,0,0.00
2013-9-29,72.6,59.2,50.1,60.0,54.3,47.0,92,84,57,30.26,30.14,0,0,0,0.00
2013-9-30,74.8,59.5,48.7,62.0,53.9,45.0,92,83,57,30.21,30.11,0,0,3,0.00
2013-10-1,77.6,59.9,48.7,66.0,55.1,44.0,92,84,64,30.29,30.18,0,0,1,0.00
2013-10-2,81.8,63.3,50.5,68.0,56.8,46.0,91,80,55,30.30,30.17,0,0,1,0.00
2013-10-3,80.9,66.0,58.0,66.0,59.6,54.0,92,81,58,30.25,30.15,0,0,1,0.00
2013-10-4,84.7,64.8,52.0,67.0,58.1,48.0,92,80,50,30.28,30.19,0,0,1,0.00
2013-10-5,85.2,66.4,54.1,69.0,59.1,50.0,91,79,50,30.25,30.12,0,0,1,0.00
2013-10-6,79.5,66.7,58.1,68.0,61.8,55.0,92,85,63,30.14,29.94,0,0,6,0.38
2013-10-7,67.7,58.0,51.5,60.0,53.2,48.0,92,84,66,30.11,29.91,3,0,6,1.11
2013-10-8,77.8,57.6,44.8,62.0,51.8,42.0,92,82,56,30.26,30.11,0,0,1,0.00
2013-10-9,77.0,59.6,48.3,62.0,53.9,45.0,92,82,57,30.29,30.20,0,0,1,0.00
2013-10-10,74.1,57.4,45.9,59.0,51.1,42.0,91,81,57,30.26,30.15,2,0,6,0.00
2013-10-11,76.8,58.1,44.9,58.0,50.7,41.0,92,78,47,30.19,30.10,2,0,7,0.00
2013-10-12,76.4,58.4,45.3,61.0,52.0,42.0,91,80,56,30.24,30.13,0,0,6,0.00
2013-10-13,77.5,59.8,46.8,65.0,53.9,43.0,91,82,60,30.33,30.23,0,0,6,0.00
2013-10-14,73.7,61.1,52.3,64.0,56.4,49.0,92,85,69,30.32,30.21,0,0,1,0.00
2013-10-15,73.5,60.4,55.8,61.0,56.4,53.0,92,87,65,30.26,30.14,0,0,1,0.01
2013-10-16,68.6,59.9,54.0,61.0,56.6,52.0,92,89,76,30.17,30.07,0,0,1,0.01
2013-10-17,68.9,61.4,55.4,66.0,58.7,53.0,92,90,87,30.08,29.97,0,0,6,0.38
2013-10-18,68.1,54.2,47.2,57.0,50.1,45.0,93,86,64,30.14,30.04,0,0,4,0.00
2013-10-19,64.7,53.7,48.3,55.0,49.2,45.0,92,85,67,30.11,30.04,1,0,6,0.01
2013-10-20,67.3,48.5,37.2,49.0,41.7,35.0,93,80,42,30.21,30.10,0,0,1,0.00
2013-10-21,69.3,49.7,34.9,53.0,43.5,32.0,93,81,50,30.28,30.16,0,0,5,0.00
2013-10-22,71.1,56.1,47.3,53.0,49.3,45.0,92,80,47,30.18,29.96,0,0,6,0.00
2013-10-23,54.2,46.1,37.2,46.0,38.7,32.0,92,76,53,30.20,29.93,10,0,14,0.00
2013-10-24,58.3,42.7,31.0,42.0,35.7,29.0,92,78,49,30.35,30.19,0,0,11,0.00
2013-10-25,51.8,37.9,27.7,37.0,27.6,24.0,90,69,37,30.52,30.35,3,0,12,0.00
2013-10-26,58.1,39.0,24.3,37.0,29.4,22.0,92,72,38,30.49,30.32,1,0,6,0.00
2013-10-27,61.7,51.4,39.6,53.0,45.2,34.0,92,79,69,30.32,30.22,0,0,6,0.00
2013-10-28,60.1,53.3,48.3,56.0,49.7,44.0,92,87,77,30.40,30.26,0,0,5,0.06
2013-10-29,69.2,54.3,43.6,59.0,49.6,40.0,92,85,67,30.47,30.37,0,0,1,0.00
2013-10-30,74.2,59.7,49.8,59.0,53.7,47.0,92,82,54,30.42,30.27,0,0,4,0.00
2013-10-31,68.0,62.6,57.6,61.0,57.3,53.0,92,83,77,30.28,29.86,9,0,13,0.15
2013-11-1,71.9,61.4,51.9,60.0,53.2,44.0,92,76,45,29.91,29.80,7,0,15,0.61
2013-11-2,62.3,50.4,40.2,50.0,41.6,36.0,92,73,50,30.18,29.90,4,0,9,0.01
2013-11-3,62.5,46.1,36.1,42.0,38.4,34.0,92,77,43,30.45,30.18,0,0,6,0.00
2013-11-4,61.8,46.6,35.6,41.0,37.2,33.0,92,72,44,30.57,30.45,0,0,6,0.00
2013-11-5,67.8,50.8,37.5,44.0,37.1,33.0,86,62,39,30.58,30.46,0,0,1,0.00
2013-11-6,67.3,58.0,46.5,57.0,52.5,34.0,92,82,58,30.48,30.21,0,0,6,0.01
2013-11-7,59.8,51.0,38.6,56.0,45.9,32.0,92,83,71,30.32,30.13,3,0,15,0.26
2013-11-8,57.5,41.7,30.1,32.0,27.5,22.0,88,61,28,30.48,30.32,0,0,8,0.00
2013-11-9,56.3,40.9,27.1,35.0,30.4,25.0,92,70,39,30.50,30.39,0,0,0,0.00
2013-11-10,67.8,49.4,36.2,43.0,35.7,28.0,90,63,31,30.45,30.36,0,0,7,0.00
2013-11-11,66.9,46.3,28.5,37.0,31.9,26.0,91,62,26,30.44,30.30,0,0,1,0.00
2013-11-12,50.3,37.1,24.8,41.0,29.5,16.0,91,74,59,30.59,30.28,0,0,9,0.00
2013-11-13,48.7,29.4,16.7,20.0,16.4,14.0,90,63,27,30.76,30.60,0,0,0,0.00
2013-11-14,60.6,35.7,19.6,24.0,18.5,13.0,90,59,17,30.68,30.49,0,0,0,0.00
2013-11-15,51.4,43.4,28.9,49.0,37.9,21.0,92,81,59,30.49,30.29,0,0,0,0.43
2013-11-16,60.2,54.6,50.1,57.0,51.5,47.0,92,89,85,30.35,30.25,0,0,2,0.03
2013-11-17,64.5,59.5,55.9,61.0,56.6,54.0,92,90,84,30.25,30.00,0,0,5,0.96
2013-11-18,66.2,56.1,43.9,63.0,43.5,34.0,92,65,35,30.16,29.99,3,0,14,0.02
2013-11-19,55.5,43.0,34.4,33.0,30.1,28.0,80,62,36,30.32,30.15,0,0,5,0.00
2013-11-20,57.0,44.7,37.0,36.0,30.0,24.0,70,57,41,30.47,30.31,0,0,0,0.00
2013-11-21,55.7,51.5,43.9,52.0,47.3,35.0,92,86,70,30.51,30.43,0,0,0,0.00
2013-11-22,60.7,56.6,53.7,58.0,54.2,52.0,92,91,88,30.46,30.29,0,0,0,0.07
2013-11-23,55.7,43.8,30.8,53.0,40.4,24.0,93,88,72,30.41,30.24,0,0,3,0.01
2013-11-24,41.7,28.0,20.0,23.0,16.1,10.0,82,63,34,30.63,30.40,0,0,0,0.00
2013-11-25,43.7,34.4,23.1,35.0,18.4,6.0,92,55,23,30.63,30.36,0,0,0,0.21
2013-11-26,46.7,43.2,37.3,44.0,40.2,35.0,93,89,87,30.34,29.82,0,0,1,4.72
2013-11-27,37.7,28.2,21.5,36.0,25.0,17.0,93,87,78,30.39,29.82,0,0,15,0.03
2013-11-28,49.5,28.7,16.5,27.0,21.0,15.0,92,76,34,30.66,30.40,0,0,1,0.01
2013-11-29,57.4,34.6,20.6,34.0,25.8,19.0,92,74,34,30.73,30.61,0,0,0,0.02
2013-11-30,54.6,39.4,30.8,30.0,25.7,24.0,82,60,32,30.68,30.47,0,0,0,0.00
2013-12-1,56.1,40.3,30.0,40.0,33.0,27.0,89,77,49,30.47,30.16,0,0,0,0.00
2013-12-2,47.9,43.2,38.7,46.0,40.3,35.0,92,89,85,30.16,29.95,0,0,0,0.13
2013-12-3,51.8,50.0,47.1,50.0,47.6,44.0,93,91,86,30.03,29.95,0,0,1,0.09
2013-12-4,61.4,57.2,51.8,59.0,54.6,49.0,93,90,86,30.14,30.02,1,0,2,0.17
2013-12-5,65.5,63.1,60.0,63.0,60.5,57.0,92,91,86,30.17,30.06,5,0,14,0.84
2013-12-6,68.4,63.6,49.6,65.0,61.0,47.0,93,91,86,30.14,30.00,13,1,16,0.90
2013-12-7,49.6,39.0,35.8,47.0,36.9,33.0,94,92,87,30.45,30.12,3,0,4,0.00
2013-12-8,50.6,43.7,41.9,47.0,40.9,39.0,93,89,86,30.42,30.25,2,0,10,2.08
2013-12-9,51.7,50.0,46.9,50.0,47.5,44.0,93,91,86,30.26,30.10,6,0,22,1.10
2013-12-10,50.8,38.6,27.2,47.0,35.5,24.0,94,88,75,30.46,30.06,8,0,13,0.61
2013-12-11,53.6,32.9,20.5,31.0,23.3,18.0,93,72,31,30.62,30.46,0,0,1,0.01
2013-12-12,42.2,30.6,23.9,24.0,18.4,9.0,91,64,26,30.61,30.52,0,0,5,0.00
2013-12-13,54.9,34.1,18.1,27.0,20.5,16.0,92,63,28,30.57,30.34,0,0,4,0.00
2013-12-14,51.6,46.7,41.6,49.0,42.1,26.0,93,85,53,30.35,29.94,2,0,9,0.63
2013-12-15,48.3,33.1,25.8,46.0,31.1,24.0,93,92,89,30.35,29.94,5,0,9,0.03
2013-12-16,52.6,34.4,21.9,36.0,27.4,20.0,93,78,41,30.44,30.33,0,0,7,0.00
2013-12-17,55.6,41.8,28.5,37.0,32.1,27.0,92,71,47,30.39,30.21,7,0,15,0.00
2013-12-18,51.4,35.3,26.6,26.0,18.8,10.0,80,55,21,30.47,30.32,3,0,12,0.00
2013-12-19,62.9,42.1,24.0,28.0,22.4,19.0,87,52,20,30.51,30.35,0,0,8,0.00
2013-12-20,60.6,52.7,41.2,53.0,39.5,27.0,87,63,37,30.36,30.23,3,0,8,0.00
2013-12-21,64.1,60.1,56.4,62.0,57.2,53.0,92,90,87,30.23,30.00,5,0,17,0.13
2013-12-22,65.4,57.0,52.1,63.0,54.4,49.0,93,91,86,30.18,29.96,10,0,14,3.50
2013-12-23,52.0,42.4,31.0,49.0,40.1,29.0,94,91,87,30.39,30.13,2,0,10,0.17
2013-12-24,35.2,28.1,20.1,29.0,23.0,17.0,93,82,59,30.57,30.39,0,0,13,0.00
2013-12-25,44.7,27.7,16.3,27.0,20.2,15.0,93,76,43,30.64,30.52,1,0,5,0.00
2013-12-26,50.5,32.3,21.5,30.0,24.6,20.0,93,76,41,30.56,30.46,0,0,5,0.00
2013-12-27,54.4,32.8,21.6,30.0,24.9,20.0,93,76,36,30.64,30.51,0,0,1,0.00
2013-12-28,45.0,33.9,25.0,39.0,31.1,23.0,93,90,45,30.59,30.13,0,0,2,1.02
2013-12-29,48.4,43.4,36.1,45.0,41.0,34.0,93,91,86,30.18,30.00,4,0,14,0.25
2013-12-30,43.4,38.3,33.4,40.0,36.0,31.0,93,91,87,30.35,30.16,0,0,1,0.01
2013-12-31,40.9,32.6,27.0,32.0,26.8,22.0,93,81,56,30.55,30.32,0,0,5,0.00
2014-1-1,49.2,35.7,26.0,33.0,28.2,24.0,93,76,47,30.52,30.28,0,0,1,0.00
2014-1-2,45.9,37.1,17.8,44.0,34.0,14.0,93,88,78,30.27,29.89,8,0,19,0.51